createdAt,value
2018-11-27T00:00:31.925Z,100.00
2018-11-27T00:03:02.934Z,100.00
2018-11-27T00:05:32.645Z,100.00
2018-11-27T00:08:01.767Z,100.00
2018-11-27T00:10:32.050Z,100.00
2018-11-27T00:13:01.069Z,99.99
2018-11-27T00:15:30.108Z,100.00
2018-11-27T00:17:59.070Z,99.94
2018-11-27T00:20:29.496Z,99.85
2018-11-27T00:22:58.518Z,100.00
2018-11-27T00:25:27.535Z,100.00
2018-11-27T00:27:56.515Z,100.00
2018-11-27T00:30:25.519Z,100.00
2018-11-27T00:32:54.534Z,100.00
2018-11-27T00:35:23.515Z,100.00
2018-11-27T00:37:52.485Z,100.00
2018-11-27T00:40:22.659Z,100.00
2018-11-27T00:42:51.962Z,100.00
2018-11-27T00:45:21.592Z,100.00
2018-11-27T00:47:51.389Z,100.00
2018-11-27T00:50:22.354Z,100.00
2018-11-27T00:52:51.343Z,100.00
2018-11-27T00:55:21.035Z,100.00
2018-11-27T00:57:51.089Z,100.00
2018-11-27T01:00:21.989Z,100.00
2018-11-27T01:02:51.094Z,100.00
2018-11-27T01:05:22.217Z,100.00
2018-11-27T01:07:51.214Z,100.00
2018-11-27T01:10:24.029Z,100.00
2018-11-27T01:12:53.212Z,100.00
2018-11-27T01:15:22.334Z,99.93
2018-11-27T01:17:59.611Z,99.86
2018-11-27T01:20:29.294Z,99.82
2018-11-27T01:22:58.286Z,100.00
2018-11-27T01:25:27.343Z,100.00
2018-11-27T01:27:56.418Z,100.00
2018-11-27T01:30:25.383Z,100.00
2018-11-27T01:32:54.498Z,100.00
2018-11-27T01:35:24.241Z,100.00
2018-11-27T01:37:54.180Z,100.00
2018-11-27T01:40:26.214Z,100.00
2018-11-27T01:42:56.992Z,100.00
2018-11-27T01:45:26.409Z,100.00
2018-11-27T01:47:55.502Z,100.00
2018-11-27T01:50:24.504Z,100.00
2018-11-27T01:52:53.586Z,100.00
2018-11-27T01:55:23.561Z,100.00
2018-11-27T01:57:52.474Z,100.00
2018-11-27T02:00:29.003Z,100.00
2018-11-27T02:02:58.769Z,100.00
2018-11-27T02:05:28.112Z,100.00
2018-11-27T02:07:57.194Z,100.00
2018-11-27T02:10:26.198Z,100.00
2018-11-27T02:13:00.983Z,100.00
2018-11-27T02:15:28.911Z,100.00
2018-11-27T02:17:58.092Z,100.00
2018-11-27T02:20:27.145Z,100.00
2018-11-27T02:22:56.206Z,100.00
2018-11-27T02:25:27.500Z,100.00
2018-11-27T02:27:56.710Z,100.00
2018-11-27T02:30:26.780Z,100.00
2018-11-27T02:32:55.809Z,100.00
2018-11-27T02:35:25.817Z,100.00
2018-11-27T02:37:57.520Z,100.00
2018-11-27T02:40:26.649Z,100.00
2018-11-27T02:42:55.669Z,100.00
2018-11-27T02:45:25.597Z,100.00
2018-11-27T02:47:54.978Z,100.00
2018-11-27T02:50:24.841Z,100.00
2018-11-27T02:52:54.052Z,100.00
2018-11-27T02:55:24.237Z,100.00
2018-11-27T02:57:53.238Z,100.00
2018-11-27T03:00:26.204Z,100.00
2018-11-27T03:02:55.400Z,100.00
2018-11-27T03:05:33.866Z,100.00
2018-11-27T03:08:02.890Z,100.00
2018-11-27T03:10:31.826Z,100.00
2018-11-27T03:13:00.791Z,100.00
2018-11-27T03:15:29.911Z,100.00
2018-11-27T03:17:58.917Z,100.00
2018-11-27T03:20:27.939Z,100.00
2018-11-27T03:22:56.861Z,100.00
2018-11-27T03:25:25.763Z,100.00
2018-11-27T03:27:55.104Z,100.00
2018-11-27T03:30:26.435Z,100.00
2018-11-27T03:32:55.493Z,100.00
2018-11-27T03:35:25.482Z,100.00
2018-11-27T03:37:54.461Z,100.00
2018-11-27T03:40:24.726Z,100.00
2018-11-27T03:42:53.709Z,100.00
2018-11-27T03:45:23.429Z,100.00
2018-11-27T03:47:52.393Z,100.00
2018-11-27T03:50:23.594Z,100.00
2018-11-27T03:52:52.538Z,100.00
2018-11-27T03:55:21.578Z,100.00
2018-11-27T03:57:51.250Z,100.00
2018-11-27T04:00:21.907Z,100.00
2018-11-27T04:02:54.093Z,100.00
2018-11-27T04:05:23.812Z,100.00
2018-11-27T04:07:52.858Z,100.00
2018-11-27T04:10:21.854Z,100.00
2018-11-27T04:12:50.855Z,100.00
2018-11-27T04:15:19.798Z,100.00
2018-11-27T04:17:48.831Z,100.00
2018-11-27T04:20:17.845Z,100.00
2018-11-27T04:22:46.779Z,100.00
2018-11-27T04:25:16.734Z,100.00
2018-11-27T04:27:46.306Z,100.00
2018-11-27T04:30:16.449Z,100.00
2018-11-27T04:32:45.417Z,100.00
2018-11-27T04:35:16.364Z,100.00
2018-11-27T04:37:45.493Z,100.00
2018-11-27T04:40:17.623Z,100.00
2018-11-27T04:42:46.772Z,100.00
2018-11-27T04:45:21.273Z,100.00
2018-11-27T04:47:50.403Z,100.00
2018-11-27T04:50:19.660Z,100.00
2018-11-27T04:52:48.754Z,100.00
2018-11-27T04:55:22.487Z,100.00
2018-11-27T04:57:52.384Z,100.00
2018-11-27T05:00:26.374Z,100.00
2018-11-27T05:02:55.456Z,100.00
2018-11-27T05:05:24.404Z,100.00
2018-11-27T05:07:53.435Z,100.00
2018-11-27T05:10:24.210Z,100.00
2018-11-27T05:12:53.214Z,100.00
2018-11-27T05:15:23.761Z,100.00
2018-11-27T05:17:56.882Z,100.00
2018-11-27T05:20:27.183Z,100.00
2018-11-27T05:22:56.109Z,100.00
2018-11-27T05:25:25.220Z,100.00
2018-11-27T05:27:56.269Z,100.00
2018-11-27T05:30:26.414Z,100.00
2018-11-27T05:32:55.407Z,100.00
2018-11-27T05:35:27.706Z,100.00
2018-11-27T05:37:56.889Z,100.00
2018-11-27T05:40:26.675Z,100.00
2018-11-27T05:43:00.016Z,100.00
2018-11-27T05:45:29.129Z,100.00
2018-11-27T05:47:58.105Z,100.00
2018-11-27T05:50:28.401Z,100.00
2018-11-27T05:52:57.442Z,100.00
2018-11-27T05:55:26.363Z,100.00
2018-11-27T05:57:56.091Z,100.00
2018-11-27T06:00:28.044Z,100.00
2018-11-27T06:02:58.129Z,100.00
2018-11-27T06:05:27.177Z,100.00
2018-11-27T06:07:56.157Z,100.00
2018-11-27T06:10:25.645Z,100.00
2018-11-27T06:12:54.582Z,100.00
2018-11-27T06:15:24.497Z,100.00
2018-11-27T06:17:55.980Z,100.00
2018-11-27T06:20:25.144Z,100.00
2018-11-27T06:22:54.700Z,100.00
2018-11-27T06:25:27.680Z,100.00
2018-11-27T06:28:05.695Z,100.00
2018-11-27T06:30:35.641Z,100.00
2018-11-27T06:33:04.743Z,100.00
2018-11-27T06:35:38.616Z,100.00
2018-11-27T06:38:09.023Z,100.00
2018-11-27T06:40:37.976Z,100.00
2018-11-27T06:43:10.612Z,100.00
2018-11-27T06:45:40.554Z,100.00
2018-11-27T06:48:09.867Z,100.00
2018-11-27T06:50:38.922Z,100.00
2018-11-27T06:53:08.526Z,100.00
2018-11-27T06:55:37.788Z,100.00
2018-11-27T06:58:07.950Z,100.00
2018-11-27T07:00:37.007Z,100.00
2018-11-27T07:03:09.440Z,100.00
2018-11-27T07:05:38.644Z,99.74
2018-11-27T07:08:09.206Z,98.75
2018-11-27T07:10:39.437Z,98.94
2018-11-27T07:13:13.794Z,99.15
2018-11-27T07:15:42.745Z,98.96
2018-11-27T07:18:11.623Z,99.05
2018-11-27T07:20:40.541Z,99.67
2018-11-27T07:23:09.699Z,98.78
2018-11-27T07:25:38.856Z,98.66
2018-11-27T07:28:07.892Z,98.54
2018-11-27T07:30:37.857Z,98.29
2018-11-27T07:33:07.434Z,98.18
2018-11-27T07:35:37.177Z,97.92
2018-11-27T07:38:06.598Z,97.09
2018-11-27T07:40:35.613Z,97.57
2018-11-27T07:43:06.995Z,97.54
2018-11-27T07:45:36.092Z,97.00
2018-11-27T07:48:05.075Z,96.12
2018-11-27T07:50:33.967Z,95.48
2018-11-27T07:53:02.901Z,95.07
2018-11-27T07:55:31.960Z,94.43
2018-11-27T07:58:00.954Z,93.52
2018-11-27T08:00:31.274Z,93.35
2018-11-27T08:03:00.223Z,93.81
2018-11-27T08:05:32.431Z,93.82
2018-11-27T08:08:01.467Z,93.74
2018-11-27T08:10:31.608Z,94.40
2018-11-27T08:13:00.538Z,94.83
2018-11-27T08:15:30.685Z,93.69
2018-11-27T08:17:59.739Z,93.46
2018-11-27T08:20:30.425Z,94.80
2018-11-27T08:22:59.579Z,95.80
2018-11-27T08:25:28.503Z,95.33
2018-11-27T08:27:57.518Z,94.10
2018-11-27T08:30:26.401Z,94.67
2018-11-27T08:32:56.117Z,93.87
2018-11-27T08:35:27.922Z,93.91
2018-11-27T08:37:58.761Z,92.53
2018-11-27T08:40:28.924Z,90.80
2018-11-27T08:42:57.889Z,90.26
2018-11-27T08:45:26.976Z,90.55
2018-11-27T08:47:56.603Z,89.39
2018-11-27T08:50:26.690Z,88.94
2018-11-27T08:52:58.057Z,88.03
2018-11-27T08:55:28.618Z,88.14
2018-11-27T08:57:57.772Z,87.50
2018-11-27T09:00:27.245Z,87.22
2018-11-27T09:02:56.198Z,86.07
2018-11-27T09:05:25.265Z,86.57
2018-11-27T09:07:54.294Z,86.25
2018-11-27T09:10:25.351Z,86.42
2018-11-27T09:12:55.763Z,85.65
2018-11-27T09:15:25.161Z,86.16
2018-11-27T09:17:56.797Z,87.33
2018-11-27T09:20:26.064Z,89.76
2018-11-27T09:22:55.009Z,89.89
2018-11-27T09:25:24.010Z,89.28
2018-11-27T09:27:53.078Z,90.43
2018-11-27T09:30:24.656Z,90.36
2018-11-27T09:32:54.558Z,90.45
2018-11-27T09:35:23.546Z,90.44
2018-11-27T09:37:53.908Z,90.08
2018-11-27T09:40:22.898Z,89.91
2018-11-27T09:42:51.858Z,89.66
2018-11-27T09:45:24.070Z,89.68
2018-11-27T09:47:54.402Z,89.87
2018-11-27T09:50:23.314Z,90.04
2018-11-27T09:52:53.624Z,90.79
2018-11-27T09:55:24.653Z,91.42
2018-11-27T09:57:58.795Z,92.13
2018-11-27T10:00:24.726Z,92.71
2018-11-27T10:02:54.976Z,93.26
2018-11-27T10:05:24.089Z,93.58
2018-11-27T10:07:53.108Z,93.68
2018-11-27T10:10:23.133Z,94.27
2018-11-27T10:12:52.163Z,95.62
2018-11-27T10:15:22.250Z,96.09
2018-11-27T10:17:53.365Z,95.63
2018-11-27T10:20:23.501Z,95.93
2018-11-27T10:22:52.556Z,95.62
2018-11-27T10:25:21.497Z,96.56
2018-11-27T10:27:50.534Z,97.02
2018-11-27T10:30:20.822Z,97.84
2018-11-27T10:32:50.472Z,98.25
2018-11-27T10:35:24.038Z,99.42
2018-11-27T10:37:52.987Z,99.79
2018-11-27T10:40:22.206Z,99.62
2018-11-27T10:42:51.246Z,99.98
2018-11-27T10:45:21.267Z,100.00
2018-11-27T10:47:51.347Z,100.00
2018-11-27T10:50:20.462Z,100.00
2018-11-27T10:52:54.469Z,100.00
2018-11-27T10:55:24.220Z,100.00
2018-11-27T10:57:53.237Z,100.00
2018-11-27T11:00:29.488Z,100.00
2018-11-27T11:03:03.781Z,100.00
2018-11-27T11:05:33.855Z,100.00
2018-11-27T11:08:02.831Z,100.00
2018-11-27T11:10:31.826Z,100.00
2018-11-27T11:13:00.833Z,100.00
2018-11-27T11:15:29.806Z,100.00
2018-11-27T11:17:58.870Z,100.00
2018-11-27T11:20:27.862Z,100.00
2018-11-27T11:22:56.879Z,100.00
2018-11-27T11:25:26.149Z,100.00
2018-11-27T11:27:57.301Z,100.00
2018-11-27T11:30:26.319Z,99.63
2018-11-27T11:32:55.382Z,98.94
2018-11-27T11:35:24.312Z,98.39
2018-11-27T11:37:53.358Z,98.93
2018-11-27T11:40:25.180Z,98.69
2018-11-27T11:42:58.766Z,98.25
2018-11-27T11:45:27.788Z,98.56
2018-11-27T11:47:56.757Z,98.07
2018-11-27T11:50:27.130Z,99.10
2018-11-27T11:53:27.750Z,98.71
2018-11-27T11:55:56.758Z,98.08
2018-11-27T11:58:25.690Z,98.41
2018-11-27T12:00:55.785Z,98.52
2018-11-27T12:03:24.733Z,98.32
2018-11-27T12:05:53.682Z,98.54
2018-11-27T12:08:22.671Z,98.77
2018-11-27T12:10:51.727Z,99.13
2018-11-27T12:13:20.658Z,98.67
2018-11-27T12:15:49.633Z,99.02
2018-11-27T12:18:18.604Z,98.60
2018-11-27T12:20:47.638Z,98.18
2018-11-27T12:23:16.622Z,98.78
2018-11-27T12:25:45.605Z,98.76
2018-11-27T12:28:15.129Z,98.68
2018-11-27T12:30:43.526Z,99.10
2018-11-27T12:33:12.519Z,99.08
2018-11-27T12:35:41.576Z,98.95
2018-11-27T12:38:10.503Z,98.75
2018-11-27T12:40:39.607Z,98.38
2018-11-27T12:43:08.655Z,98.62
2018-11-27T12:45:37.663Z,98.93
2018-11-27T12:48:06.754Z,98.30
2018-11-27T12:50:45.226Z,98.20
2018-11-27T12:53:16.966Z,97.68
2018-11-27T12:55:45.903Z,97.97
2018-11-27T12:58:14.868Z,97.84
2018-11-27T13:00:43.939Z,98.21
2018-11-27T13:03:12.910Z,98.36
2018-11-27T13:05:43.719Z,98.41
2018-11-27T13:08:14.870Z,98.77
2018-11-27T13:10:43.827Z,98.84
2018-11-27T13:13:12.763Z,98.83
2018-11-27T13:15:42.313Z,99.43
2018-11-27T13:18:11.412Z,99.21
2018-11-27T13:20:40.925Z,99.17
2018-11-27T13:23:10.146Z,98.88
2018-11-27T13:25:41.862Z,98.85
2018-11-27T13:28:12.206Z,99.06
2018-11-27T13:30:56.098Z,98.72
2018-11-27T13:33:27.588Z,98.35
2018-11-27T13:35:56.549Z,98.70
2018-11-27T13:38:26.198Z,98.72
2018-11-27T13:40:54.587Z,99.09
2018-11-27T13:43:30.658Z,99.14
2018-11-27T13:46:00.779Z,99.15
2018-11-27T13:48:29.729Z,99.16
2018-11-27T13:50:58.676Z,99.09
2018-11-27T13:53:27.550Z,99.46
2018-11-27T13:55:56.455Z,99.51
2018-11-27T13:58:25.571Z,99.38
2018-11-27T14:00:54.527Z,99.84
2018-11-27T14:03:23.465Z,99.89
2018-11-27T14:05:52.470Z,100.00
2018-11-27T14:08:21.462Z,100.00
2018-11-27T14:10:50.410Z,100.00
2018-11-27T14:13:19.447Z,100.00
2018-11-27T14:15:49.817Z,100.00
2018-11-27T14:18:18.821Z,100.00
2018-11-27T14:20:47.927Z,99.82
2018-11-27T14:23:16.879Z,99.89
2018-11-27T14:25:45.842Z,99.74
2018-11-27T14:28:14.842Z,100.00
2018-11-27T14:30:43.814Z,99.83
2018-11-27T14:33:12.810Z,99.98
2018-11-27T14:35:41.847Z,99.67
2018-11-27T14:38:10.790Z,99.63
2018-11-27T14:40:39.800Z,99.59
2018-11-27T14:43:08.789Z,99.59
2018-11-27T14:45:37.886Z,99.33
2018-11-27T14:48:07.705Z,99.56
2018-11-27T14:50:36.733Z,99.21
2018-11-27T14:53:05.916Z,99.00
2018-11-27T14:55:35.718Z,99.07
2018-11-27T14:58:04.804Z,98.97
2018-11-27T15:00:33.885Z,98.84
2018-11-27T15:03:02.862Z,98.84
2018-11-27T15:05:34.174Z,98.65
2018-11-27T15:08:03.843Z,98.54
2018-11-27T15:10:32.929Z,98.28
2018-11-27T15:13:03.146Z,98.71
2018-11-27T15:15:32.014Z,98.23
2018-11-27T15:18:00.925Z,98.41
2018-11-27T15:20:29.859Z,98.23
2018-11-27T15:22:58.829Z,97.77
2018-11-27T15:25:27.754Z,97.13
2018-11-27T15:27:58.030Z,97.46
2018-11-27T15:30:28.809Z,97.89
2018-11-27T15:33:00.367Z,97.99
2018-11-27T15:35:29.327Z,97.58
2018-11-27T15:37:58.334Z,97.51
2018-11-27T15:40:29.642Z,97.66
2018-11-27T15:42:58.790Z,97.58
2018-11-27T15:45:35.041Z,97.27
2018-11-27T15:48:06.991Z,97.23
2018-11-27T15:50:35.981Z,97.78
2018-11-27T15:53:05.064Z,97.93
2018-11-27T15:55:36.721Z,98.02
2018-11-27T15:58:10.342Z,97.46
2018-11-27T16:00:40.953Z,97.58
2018-11-27T16:03:10.007Z,97.26
2018-11-27T16:05:39.759Z,97.35
2018-11-27T16:08:10.381Z,97.46
2018-11-27T16:10:39.241Z,97.19
2018-11-27T16:13:08.390Z,97.38
2018-11-27T16:15:37.696Z,97.39
2018-11-27T16:18:07.508Z,97.94
2018-11-27T16:20:36.416Z,97.99
2018-11-27T16:23:05.619Z,98.22
2018-11-27T16:25:35.870Z,98.40
2018-11-27T16:28:06.338Z,98.81
2018-11-27T16:30:35.306Z,98.75
2018-11-27T16:33:04.385Z,99.01
2018-11-27T16:35:34.810Z,98.98
2018-11-27T16:38:03.770Z,99.04
2018-11-27T16:40:35.516Z,99.59
2018-11-27T16:43:04.536Z,99.77
2018-11-27T16:45:33.599Z,100.00
2018-11-27T16:48:02.530Z,100.00
2018-11-27T16:50:31.456Z,100.00
2018-11-27T16:53:00.389Z,100.00
2018-11-27T16:55:30.604Z,100.00
2018-11-27T16:57:59.554Z,99.86
2018-11-27T17:00:32.598Z,99.86
2018-11-27T17:03:02.546Z,100.00
2018-11-27T17:05:35.190Z,100.00
2018-11-27T17:08:04.105Z,99.87
2018-11-27T17:10:33.132Z,100.00
2018-11-27T17:13:02.578Z,100.00
2018-11-27T17:15:31.563Z,100.00
2018-11-27T17:18:01.759Z,100.00
2018-11-27T17:20:34.836Z,100.00
2018-11-27T17:23:05.278Z,100.00
2018-11-27T17:25:34.129Z,100.00
2018-11-27T17:28:04.779Z,100.00
2018-11-27T17:30:36.324Z,100.00
2018-11-27T17:34:08.803Z,100.00
2018-11-27T17:36:38.507Z,100.00
2018-11-27T17:39:11.259Z,100.00
2018-11-27T17:41:40.313Z,100.00
2018-11-27T17:44:12.409Z,100.00
2018-11-27T17:46:43.898Z,100.00
2018-11-27T17:49:12.803Z,100.00
2018-11-27T17:51:41.802Z,100.00
2018-11-27T17:54:10.943Z,100.00
2018-11-27T17:56:39.977Z,100.00
2018-11-27T17:59:08.950Z,100.00
2018-11-27T18:01:37.962Z,100.00
2018-11-27T18:04:07.016Z,100.00
2018-11-27T18:06:36.012Z,100.00
2018-11-27T18:09:07.724Z,100.00
2018-11-27T18:11:36.732Z,100.00
2018-11-27T18:14:05.765Z,100.00
2018-11-27T18:16:34.757Z,100.00
2018-11-27T18:19:03.719Z,100.00
2018-11-27T18:21:32.642Z,100.00
2018-11-27T18:24:01.561Z,100.00
2018-11-27T18:26:30.478Z,100.00
2018-11-27T18:28:59.408Z,100.00
2018-11-27T18:31:29.688Z,100.00
2018-11-27T18:33:58.621Z,100.00
2018-11-27T18:36:27.602Z,100.00
2018-11-27T18:38:58.039Z,100.00
2018-11-27T18:41:26.978Z,100.00
2018-11-27T18:43:55.955Z,100.00
2018-11-27T18:46:26.180Z,100.00
2018-11-27T18:48:55.101Z,100.00
2018-11-27T18:51:25.375Z,100.00
2018-11-27T18:53:55.082Z,100.00
2018-11-27T18:56:23.366Z,100.00
2018-11-27T18:58:52.294Z,100.00
2018-11-27T19:01:21.271Z,100.00
2018-11-27T19:03:50.258Z,100.00
2018-11-27T19:06:20.462Z,100.00
2018-11-27T19:08:49.394Z,100.00
2018-11-27T19:11:18.580Z,100.00
2018-11-27T19:13:47.646Z,100.00
2018-11-27T19:16:16.660Z,100.00
2018-11-27T19:18:45.535Z,100.00
2018-11-27T19:21:14.562Z,100.00
2018-11-27T19:23:43.491Z,100.00
2018-11-27T19:26:13.758Z,100.00
2018-11-27T19:28:44.338Z,100.00
2018-11-27T19:31:13.347Z,100.00
2018-11-27T19:33:42.777Z,100.00
2018-11-27T19:36:12.918Z,100.00
2018-11-27T19:38:41.874Z,100.00
2018-11-27T19:41:10.756Z,100.00
2018-11-27T19:43:39.699Z,100.00
2018-11-27T19:46:08.680Z,100.00
2018-11-27T19:48:38.139Z,100.00
2018-11-27T19:51:07.605Z,100.00
2018-11-27T19:53:36.545Z,100.00
2018-11-27T19:56:06.350Z,100.00
2018-11-27T19:58:35.410Z,100.00
2018-11-27T20:01:04.422Z,100.00
2018-11-27T20:03:33.346Z,100.00
2018-11-27T20:06:02.690Z,100.00
2018-11-27T20:08:32.138Z,100.00
2018-11-27T20:11:01.973Z,100.00
2018-11-27T20:13:31.171Z,100.00
2018-11-27T20:16:00.179Z,100.00
2018-11-27T20:18:29.548Z,100.00
2018-11-27T20:20:58.448Z,100.00
2018-11-27T20:23:27.298Z,100.00
2018-11-27T20:25:57.569Z,100.00
2018-11-27T20:28:28.124Z,100.00
2018-11-27T20:30:57.143Z,100.00
2018-11-27T20:33:26.236Z,100.00
2018-11-27T20:35:55.226Z,100.00
2018-11-27T20:38:24.305Z,100.00
2018-11-27T20:40:54.567Z,100.00
2018-11-27T20:43:23.799Z,100.00
2018-11-27T20:45:52.678Z,100.00
2018-11-27T20:48:21.733Z,100.00
2018-11-27T20:50:52.056Z,100.00
2018-11-27T20:53:21.130Z,100.00
2018-11-27T20:55:50.467Z,100.00
2018-11-27T20:58:21.134Z,100.00
2018-11-27T21:00:51.916Z,100.00
2018-11-27T21:03:20.931Z,100.00
2018-11-27T21:05:51.637Z,100.00
2018-11-27T21:08:20.621Z,100.00
2018-11-27T21:10:49.526Z,100.00
2018-11-27T21:13:18.508Z,100.00
2018-11-27T21:15:47.540Z,100.00
2018-11-27T21:18:16.458Z,100.00
2018-11-27T21:20:45.434Z,100.00
2018-11-27T21:23:14.354Z,100.00
2018-11-27T21:25:43.388Z,100.00
2018-11-27T21:28:19.140Z,100.00
2018-11-27T21:30:50.806Z,100.00
2018-11-27T21:33:19.731Z,100.00
2018-11-27T21:35:50.082Z,100.00
2018-11-27T21:38:19.173Z,100.00
2018-11-27T21:40:48.062Z,100.00
2018-11-27T21:43:17.045Z,100.00
2018-11-27T21:45:45.954Z,100.00
2018-11-27T21:48:14.862Z,100.00
2018-11-27T21:50:44.545Z,99.87
2018-11-27T21:53:13.476Z,99.73
2018-11-27T21:55:42.913Z,99.83
2018-11-27T21:58:11.915Z,99.98
2018-11-27T22:00:42.238Z,99.83
2018-11-27T22:03:12.191Z,99.57
2018-11-27T22:05:41.110Z,99.40
2018-11-27T22:08:10.070Z,99.71
2018-11-27T22:10:39.273Z,99.57
2018-11-27T22:13:10.787Z,99.38
2018-11-27T22:15:40.976Z,99.56
2018-11-27T22:18:10.881Z,99.68
2018-11-27T22:20:39.814Z,100.00
2018-11-27T22:23:09.657Z,99.68
2018-11-27T22:25:38.569Z,99.85
2018-11-27T22:28:08.642Z,99.93
2018-11-27T22:30:37.551Z,99.49
2018-11-27T22:33:07.971Z,99.90
2018-11-27T22:35:36.963Z,100.00
2018-11-27T22:38:07.740Z,100.00
2018-11-27T22:40:36.674Z,99.87
2018-11-27T22:43:06.560Z,99.72
2018-11-27T22:45:37.099Z,100.00
2018-11-27T22:48:06.925Z,100.00
2018-11-27T22:50:35.988Z,100.00
2018-11-27T22:53:05.290Z,100.00
2018-11-27T22:55:34.254Z,100.00
2018-11-27T22:58:03.175Z,100.00
2018-11-27T23:00:37.298Z,100.00
2018-11-27T23:03:06.302Z,99.98
2018-11-27T23:05:35.280Z,99.29
2018-11-27T23:08:04.391Z,98.08
2018-11-27T23:10:35.047Z,98.47
2018-11-27T23:13:05.750Z,98.75
2018-11-27T23:15:34.742Z,98.90
2018-11-27T23:18:03.670Z,99.51
2018-11-27T23:20:32.706Z,98.48
2018-11-27T23:23:01.616Z,97.78
2018-11-27T23:25:30.489Z,98.47
2018-11-27T23:27:59.445Z,98.13
2018-11-27T23:30:28.370Z,98.02
2018-11-27T23:32:57.370Z,97.53
2018-11-27T23:35:26.307Z,98.49
2018-11-27T23:37:55.278Z,98.86
2018-11-27T23:40:25.628Z,99.17
2018-11-27T23:42:54.565Z,98.84
2018-11-27T23:45:24.281Z,99.21
2018-11-27T23:47:53.237Z,99.56
2018-11-27T23:50:22.909Z,99.62
2018-11-27T23:52:51.899Z,99.75
2018-11-27T23:55:21.205Z,99.76
2018-11-27T23:57:50.165Z,99.13
